Time;durP1;ratioP1;P1;durP2;ratioP2;P2;SDS_P1;SDS_P2;PMS_P1;PMS_P2;Temp;Humidity;BMP_temperature;BMP_pressure;BME280_temperature;BME280_humidity;BME280_pressure;Samples;Min_cycle;Max_cycle;Signal;HPM_P1;HPM_P2
2022/05/24 00:00:18;;;;;;;3.28;1.60;;;20.80;89.50;;;;;;5019217;28;20119;-86
2022/05/24 00:02:44;;;;;;;4.40;1.80;;;20.80;89.60;;;;;;5024449;28;20025;-86
2022/05/24 00:05:10;;;;;;;3.28;1.50;;;20.80;89.60;;;;;;5022216;28;20033;-86
2022/05/24 00:07:37;;;;;;;2.78;1.23;;;20.80;89.90;;;;;;5026810;28;20029;-86
2022/05/24 00:10:06;;;;;;;6.88;2.22;;;20.80;90.00;;;;;;5027810;28;20124;-85
2022/05/24 00:12:31;;;;;;;2.88;1.70;;;20.80;90.10;;;;;;5028202;28;20576;-86
2022/05/24 00:17:43;;;;;;;4.25;1.70;;;20.70;92.40;;;;;;5024776;28;20036;-85
2022/05/24 00:20:10;;;;;;;6.18;1.58;;;20.70;93.40;;;;;;5027450;28;20580;-86
2022/05/24 00:22:35;;;;;;;7.72;1.88;;;20.70;94.10;;;;;;5026476;28;20038;-85
2022/05/24 00:25:01;;;;;;;7.10;1.40;;;20.50;94.50;;;;;;5019888;28;20052;-85
2022/05/24 00:27:29;;;;;;;5.63;1.52;;;20.50;94.60;;;;;;5026239;28;20026;-85
2022/05/24 00:29:56;;;;;;;5.63;2.53;;;20.60;94.70;;;;;;5032852;28;20039;-85
2022/05/24 00:32:22;;;;;;;3.83;1.75;;;20.60;95.00;;;;;;5025939;28;20385;-86
2022/05/24 00:34:47;;;;;;;8.85;2.22;;;20.60;95.20;;;;;;5026938;28;20445;-85
2022/05/24 00:37:13;;;;;;;4.18;1.80;;;20.50;95.20;;;;;;5024940;28;20076;-85
2022/05/24 00:39:38;;;;;;;4.78;1.88;;;20.50;95.40;;;;;;5028527;28;20116;-85
2022/05/24 00:42:18;;;;;;;4.88;1.50;;;20.50;95.70;;;;;;5028807;28;20303;-86
2022/05/24 00:44:53;;;;;;;5.57;1.52;;;20.50;95.80;;;;;;5028098;28;20037;-86
2022/05/24 00:47:27;;;;;;;5.53;1.60;;;20.50;95.90;;;;;;5044855;28;20118;-86
2022/05/24 00:49:58;;;;;;;7.80;1.52;;;20.50;96.20;;;;;;5027929;28;20033;-87
2022/05/24 00:52:30;;;;;;;3.03;1.60;;;20.50;96.10;;;;;;5030192;28;20045;-86
2022/05/24 00:54:59;;;;;;;2.13;1.10;;;20.50;96.40;;;;;;5022864;28;20029;-86
2022/05/24 00:57:30;;;;;;;4.10;1.20;;;20.40;96.40;;;;;;5024390;28;20029;-86
2022/05/24 01:00:10;;;;;;;3.45;1.40;;;20.50;96.40;;;;;;5039410;28;20033;-87
2022/05/24 01:02:36;;;;;;;3.30;1.52;;;20.40;96.50;;;;;;5027676;28;20029;-85
2022/05/24 01:05:03;;;;;;;5.05;1.63;;;20.40;96.60;;;;;;5026843;28;20032;-85
2022/05/24 01:07:29;;;;;;;2.35;1.08;;;20.40;96.60;;;;;;5029269;28;20033;-86
2022/05/24 01:10:00;;;;;;;3.75;1.33;;;20.40;96.50;;;;;;5032117;28;20037;-86
2022/05/24 01:12:58;;;;;;;2.75;1.55;;;20.40;96.70;;;;;;5032251;28;20033;-86
2022/05/24 01:15:25;;;;;;;3.20;1.10;;;20.40;96.60;;;;;;5021151;28;20048;-86
2022/05/24 01:17:53;;;;;;;3.58;1.10;;;20.40;96.50;;;;;;5029018;28;20481;-85
2022/05/24 01:20:19;;;;;;;2.25;0.80;;;20.40;96.60;;;;;;5030716;28;20044;-86
2022/05/24 01:23:03;;;;;;;2.72;1.30;;;20.40;96.60;;;;;;5026685;28;20481;-86
2022/05/24 01:25:53;;;;;;;7.93;1.02;;;20.40;96.70;;;;;;5040489;28;20018;-86
2022/05/24 01:28:37;;;;;;;8.43;1.45;;;20.40;96.70;;;;;;5032003;28;20482;-86
2022/05/24 01:31:05;;;;;;;2.60;1.40;;;20.40;96.70;;;;;;5045748;28;20030;-87
2022/05/24 01:36:16;;;;;;;4.28;1.88;;;20.40;96.90;;;;;;5029287;28;20042;-86
2022/05/24 01:38:51;;;;;;;3.08;1.10;;;20.30;96.70;;;;;;5030265;28;20033;-86
2022/05/24 01:41:31;;;;;;;3.10;1.35;;;20.30;96.70;;;;;;5033118;28;20490;-87
2022/05/24 01:43:57;;;;;;;3.22;1.10;;;20.30;97.00;;;;;;5028594;28;20064;-87
2022/05/24 01:46:34;;;;;;;3.45;1.08;;;20.30;96.70;;;;;;5028838;28;20443;-85
2022/05/24 01:49:06;;;;;;;4.63;1.70;;;20.30;96.70;;;;;;5031056;28;20121;-86
2022/05/24 01:51:39;;;;;;;4.57;1.17;;;20.30;96.80;;;;;;5031177;28;20036;-87
2022/05/24 01:54:06;;;;;;;5.63;1.20;;;20.30;96.60;;;;;;5047145;28;20202;-86
2022/05/24 01:56:43;;;;;;;3.35;1.23;;;20.30;96.80;;;;;;5031169;28;20087;-87
2022/05/24 01:59:10;;;;;;;4.20;1.20;;;20.30;96.70;;;;;;5028216;28;20029;-87
2022/05/24 02:01:47;;;;;;;1.35;0.82;;;20.30;96.50;;;;;;5032903;28;20030;-87
2022/05/24 02:04:13;;;;;;;2.75;1.10;;;20.30;96.80;;;;;;5028092;28;20028;-86
2022/05/24 02:06:39;;;;;;;4.38;1.17;;;20.30;96.60;;;;;;5033724;28;20037;-86
2022/05/24 02:09:07;;;;;;;3.63;1.27;;;20.30;96.60;;;;;;5033650;28;20068;-86
2022/05/24 02:11:33;;;;;;;3.58;1.23;;;20.30;96.50;;;;;;5031485;28;20490;-86
2022/05/24 02:14:14;;;;;;;7.22;1.10;;;20.30;96.50;;;;;;5036592;28;20064;-86
2022/05/24 02:16:49;;;;;;;4.05;0.77;;;20.30;96.40;;;;;;5022531;28;20026;-86
2022/05/24 02:19:16;;;;;;;2.83;1.10;;;20.30;96.40;;;;;;5051024;28;20328;-87
2022/05/24 02:21:45;;;;;;;3.55;1.15;;;20.30;96.40;;;;;;5029787;28;20501;-87
2022/05/24 02:24:17;;;;;;;2.03;0.90;;;20.40;96.40;;;;;;5043627;28;20046;-87
2022/05/24 02:26:44;;;;;;;4.03;1.02;;;20.40;96.50;;;;;;5031923;28;20033;-86
2022/05/24 02:29:09;;;;;;;3.22;1.25;;;20.40;96.60;;;;;;5046321;28;20079;-86
2022/05/24 02:31:35;;;;;;;3.58;1.75;;;20.40;96.40;;;;;;5029499;28;20037;-86
2022/05/24 02:34:00;;;;;;;2.92;1.40;;;20.40;96.40;;;;;;5035546;28;20034;-86
2022/05/24 02:36:26;;;;;;;4.60;1.63;;;20.40;96.50;;;;;;5028673;28;20030;-86
2022/05/24 02:38:51;;;;;;;3.40;0.90;;;20.40;96.70;;;;;;5024275;28;20538;-86
2022/05/24 02:41:29;;;;;;;2.92;1.35;;;20.40;96.60;;;;;;5029875;28;20405;-88
2022/05/24 02:44:01;;;;;;;1.15;0.77;;;20.40;96.60;;;;;;5030165;28;20067;-87
2022/05/24 02:46:29;;;;;;;1.27;1.15;;;20.40;96.60;;;;;;5028492;28;20032;-88
2022/05/24 02:48:56;;;;;;;2.72;1.45;;;20.40;96.50;;;;;;5030313;28;20375;-86
2022/05/24 02:51:22;;;;;;;2.25;1.10;;;20.40;96.40;;;;;;5031085;28;20030;-86
2022/05/24 02:53:47;;;;;;;1.67;1.05;;;20.40;96.60;;;;;;5028893;28;20044;-87
2022/05/24 02:56:14;;;;;;;3.20;1.05;;;20.40;96.60;;;;;;5028076;28;20121;-85
2022/05/24 02:58:40;;;;;;;2.10;1.08;;;20.40;96.40;;;;;;5030571;28;20084;-86
2022/05/24 03:01:21;;;;;;;1.50;1.38;;;20.40;96.70;;;;;;5027880;28;20041;-86
2022/05/24 03:03:48;;;;;;;2.75;1.17;;;20.40;96.20;;;;;;5029947;28;20033;-86
2022/05/24 03:06:14;;;;;;;1.45;0.88;;;20.30;96.50;;;;;;5029889;28;20037;-87
2022/05/24 03:11:24;;;;;;;2.10;0.93;;;20.20;96.10;;;;;;5030201;28;20079;-86
2022/05/24 03:16:34;;;;;;;3.83;1.27;;;20.10;96.00;;;;;;5028185;28;20033;-87
2022/05/24 03:19:00;;;;;;;2.00;1.08;;;20.10;96.00;;;;;;5031661;28;20045;-87
2022/05/24 03:21:25;;;;;;;2.30;1.25;;;20.10;96.00;;;;;;5029945;28;20060;-86
2022/05/24 03:23:51;;;;;;;1.55;1.27;;;20.10;95.90;;;;;;5031236;28;20026;-86
2022/05/24 03:26:17;;;;;;;2.97;1.02;;;20.10;96.00;;;;;;5028054;28;20597;-86
2022/05/24 03:28:43;;;;;;;3.95;1.40;;;20.10;96.00;;;;;;5029378;28;20030;-86
2022/05/24 03:31:09;;;;;;;1.60;1.23;;;20.10;96.00;;;;;;5030584;28;20026;-85
2022/05/24 03:33:35;;;;;;;4.80;1.27;;;20.00;95.70;;;;;;5030664;28;20035;-86
2022/05/24 03:36:00;;;;;;;2.35;1.13;;;20.00;95.70;;;;;;5029163;28;20064;-86
2022/05/24 03:38:28;;;;;;;2.15;1.63;;;20.00;95.70;;;;;;5030777;28;20041;-88
2022/05/24 03:40:54;;;;;;;2.10;1.48;;;20.00;95.70;;;;;;5027696;28;20037;-86
2022/05/24 03:43:20;;;;;;;1.65;1.10;;;19.90;95.60;;;;;;5030238;28;20055;-87
2022/05/24 03:45:46;;;;;;;1.58;1.30;;;19.90;95.60;;;;;;5023403;28;20529;-86
2022/05/24 03:48:12;;;;;;;2.08;1.20;;;19.90;95.50;;;;;;5021043;28;20037;-86
2022/05/24 03:50:37;;;;;;;1.65;1.00;;;19.90;95.40;;;;;;5020228;28;20025;-87
2022/05/24 03:53:03;;;;;;;2.28;1.30;;;19.80;95.40;;;;;;5018636;28;20402;-86
2022/05/24 03:55:29;;;;;;;1.33;1.23;;;19.90;95.70;;;;;;5020255;28;20391;-86
2022/05/24 03:58:00;;;;;;;3.00;0.95;;;19.80;95.30;;;;;;5020755;28;20032;-86
2022/05/24 04:00:32;;;;;;;1.92;1.27;;;19.80;95.30;;;;;;5019867;28;20056;-87
2022/05/24 04:02:58;;;;;;;1.93;1.40;;;19.70;95.10;;;;;;5034134;28;20464;-87
2022/05/24 04:05:24;;;;;;;2.05;1.50;;;19.70;95.00;;;;;;5021562;28;20286;-86
2022/05/24 04:07:49;;;;;;;2.28;1.60;;;19.60;95.00;;;;;;5018932;28;20045;-86
2022/05/24 04:10:16;;;;;;;2.10;1.48;;;19.60;95.30;;;;;;5019658;28;20043;-85
2022/05/24 04:12:42;;;;;;;3.60;2.20;;;19.50;95.00;;;;;;5028668;28;20092;-85
2022/05/24 04:15:09;;;;;;;2.10;1.85;;;19.40;95.20;;;;;;5029123;28;20152;-85
2022/05/24 04:17:34;;;;;;;2.58;1.75;;;19.30;95.30;;;;;;5023324;28;20060;-86
2022/05/24 04:20:00;;;;;;;1.52;1.33;;;19.20;95.50;;;;;;5014068;28;20514;-86
2022/05/24 04:22:25;;;;;;;2.67;1.95;;;19.20;95.60;;;;;;5024204;28;20040;-85
2022/05/24 04:24:51;;;;;;;2.45;2.22;;;19.20;95.80;;;;;;5023790;28;20549;-86
2022/05/24 04:27:16;;;;;;;3.58;2.30;;;19.20;95.80;;;;;;5026651;28;20037;-85
2022/05/24 04:29:42;;;;;;;2.72;2.35;;;19.20;95.70;;;;;;5020110;28;20463;-86
2022/05/24 04:32:09;;;;;;;3.15;1.88;;;19.20;95.80;;;;;;5025008;28;20044;-85
2022/05/24 04:34:36;;;;;;;3.03;2.33;;;19.20;96.00;;;;;;5031406;28;20030;-85
2022/05/24 04:37:01;;;;;;;2.88;2.10;;;19.10;95.90;;;;;;5034142;28;20043;-88
2022/05/24 04:39:27;;;;;;;2.95;2.60;;;19.10;95.90;;;;;;5033729;28;20029;-84
2022/05/24 04:44:37;;;;;;;2.78;2.50;;;19.10;96.20;;;;;;5039714;28;20032;-85
2022/05/24 04:47:08;;;;;;;2.22;2.00;;;19.10;96.10;;;;;;5035409;28;20116;-85
2022/05/24 04:49:35;;;;;;;4.47;2.55;;;19.20;96.20;;;;;;5032572;28;20450;-86
2022/05/24 04:52:02;;;;;;;3.10;2.75;;;19.20;96.10;;;;;;5030207;28;20041;-85
2022/05/24 04:54:27;;;;;;;2.88;2.45;;;19.20;96.10;;;;;;5027170;28;20025;-84
2022/05/24 04:56:53;;;;;;;3.35;2.85;;;19.10;96.30;;;;;;5031254;28;20032;-86
2022/05/24 04:59:18;;;;;;;3.53;2.70;;;19.10;96.20;;;;;;5034261;28;20034;-86
2022/05/24 05:01:45;;;;;;;3.63;2.60;;;19.10;96.20;;;;;;5033372;28;20095;-86
2022/05/24 05:04:11;;;;;;;3.33;2.45;;;19.10;96.30;;;;;;5024042;28;20037;-85
2022/05/24 05:06:37;;;;;;;4.00;2.35;;;19.10;96.30;;;;;;5033682;28;20045;-86
2022/05/24 05:09:03;;;;;;;3.83;3.17;;;19.10;96.30;;;;;;5029293;28;20022;-87
2022/05/24 05:11:29;;;;;;;2.80;2.58;;;19.10;96.10;;;;;;5029502;28;20025;-86
2022/05/24 05:13:54;;;;;;;2.42;2.17;;;19.00;96.30;;;;;;5028965;28;20371;-86
2022/05/24 05:16:20;;;;;;;3.45;2.40;;;19.10;96.40;;;;;;5032965;28;20131;-84
2022/05/24 05:18:46;;;;;;;2.78;2.33;;;19.20;96.10;;;;;;5029050;28;20609;-86
2022/05/24 05:21:11;;;;;;;2.90;2.55;;;19.20;96.10;;;;;;5031910;28;20036;-85
2022/05/24 05:23:37;;;;;;;3.70;3.00;;;19.30;96.10;;;;;;5021934;28;20041;-85
2022/05/24 05:26:03;;;;;;;5.97;3.53;;;19.20;95.70;;;;;;5029649;28;20041;-85
2022/05/24 05:28:28;;;;;;;4.30;2.95;;;19.20;95.80;;;;;;5028568;28;20563;-85
2022/05/24 05:33:39;;;;;;;9.13;2.90;;;19.30;95.60;;;;;;5031750;28;20036;-86
2022/05/24 05:36:05;;;;;;;3.45;3.15;;;19.30;95.40;;;;;;5028206;28;20029;-87
2022/05/24 05:38:31;;;;;;;4.22;3.78;;;19.30;95.40;;;;;;5029284;28;20033;-84
2022/05/24 05:41:00;;;;;;;5.32;3.60;;;19.30;95.40;;;;;;5017701;28;20029;-85
2022/05/24 05:43:27;;;;;;;6.10;3.42;;;19.40;95.60;;;;;;5023956;28;20032;-86
2022/05/24 05:45:57;;;;;;;5.30;3.63;;;19.40;95.40;;;;;;5027818;28;20022;-85
2022/05/24 05:48:22;;;;;;;3.75;3.28;;;19.50;95.60;;;;;;5020467;28;20042;-87
2022/05/24 05:50:48;;;;;;;8.13;3.33;;;19.50;95.50;;;;;;5046336;28;20393;-86
2022/05/24 05:53:15;;;;;;;4.40;3.30;;;19.60;94.90;;;;;;5016593;28;20030;-85
2022/05/24 05:55:43;;;;;;;3.95;3.15;;;19.70;95.00;;;;;;5023918;28;20033;-85
2022/05/24 05:58:10;;;;;;;4.78;3.58;;;19.60;94.80;;;;;;5031107;28;20055;-84
2022/05/24 06:00:37;;;;;;;4.43;3.78;;;19.80;94.80;;;;;;5029811;28;20627;-85
2022/05/24 06:03:03;;;;;;;4.10;3.55;;;19.90;94.60;;;;;;5016349;28;20030;-85
2022/05/24 06:05:29;;;;;;;6.10;3.10;;;20.00;94.90;;;;;;5029364;28;20040;-86
2022/05/24 06:08:00;;;;;;;6.13;3.80;;;20.20;93.90;;;;;;5041896;28;20047;-84
2022/05/24 06:10:27;;;;;;;6.43;3.13;;;20.40;93.30;;;;;;5022480;28;20405;-84
2022/05/24 06:12:52;;;;;;;3.80;3.35;;;20.40;93.40;;;;;;5023894;28;20120;-85
2022/05/24 06:15:19;;;;;;;4.03;3.58;;;20.50;93.10;;;;;;5028360;28;20128;-85
2022/05/24 06:17:48;;;;;;;4.28;3.70;;;20.50;93.00;;;;;;5018585;28;20026;-85
2022/05/24 06:20:13;;;;;;;3.45;3.03;;;20.30;93.00;;;;;;5026945;28;20139;-85
2022/05/24 06:22:39;;;;;;;3.95;3.33;;;20.30;93.10;;;;;;5030079;28;20112;-85
2022/05/24 06:25:05;;;;;;;5.43;3.30;;;20.40;93.20;;;;;;5030885;28;20041;-86
2022/05/24 06:27:30;;;;;;;5.65;3.40;;;20.40;92.90;;;;;;5045733;28;20041;-86
2022/05/24 06:29:56;;;;;;;4.65;3.67;;;20.40;92.70;;;;;;5032011;28;20037;-85
2022/05/24 06:32:22;;;;;;;4.32;3.70;;;20.40;92.80;;;;;;5021650;28;20528;-86
2022/05/24 06:34:48;;;;;;;4.65;3.70;;;20.30;92.90;;;;;;5029700;28;20034;-86
2022/05/24 06:37:18;;;;;;;5.13;3.75;;;20.20;93.10;;;;;;5030063;28;20040;-88
2022/05/24 06:39:44;;;;;;;6.78;4.45;;;20.20;93.40;;;;;;5031340;28;20048;-85
2022/05/24 06:42:09;;;;;;;7.10;4.05;;;20.20;93.70;;;;;;5029293;28;20033;-87
2022/05/24 06:44:35;;;;;;;5.82;5.05;;;20.20;93.60;;;;;;5029941;28;20270;-84
2022/05/24 06:47:01;;;;;;;9.13;3.90;;;20.20;93.40;;;;;;5029427;28;20030;-85
2022/05/24 06:49:26;;;;;;;6.40;4.38;;;20.10;93.40;;;;;;5029106;28;20375;-87
2022/05/24 06:51:52;;;;;;;5.13;4.63;;;20.10;93.20;;;;;;5030452;28;20029;-86
2022/05/24 06:54:17;;;;;;;4.93;4.15;;;20.20;92.70;;;;;;5030178;28;20393;-85
2022/05/24 06:56:43;;;;;;;7.13;4.13;;;20.30;92.80;;;;;;5029459;28;20037;-85
2022/05/24 07:04:38;;;;;;;6.28;4.10;;;20.50;92.40;;;;;;5040459;28;20094;-85
2022/05/24 07:07:04;;;;;;;4.28;3.40;;;20.60;91.60;;;;;;5039110;28;20040;-85
2022/05/24 07:09:31;;;;;;;4.63;3.33;;;20.70;91.30;;;;;;5044443;28;20025;-85
2022/05/24 07:12:01;;;;;;;4.28;3.20;;;20.70;91.30;;;;;;5038796;28;20025;-85
2022/05/24 07:14:27;;;;;;;4.28;3.40;;;20.70;91.20;;;;;;5040128;28;20029;-86
2022/05/24 07:16:52;;;;;;;10.73;3.25;;;20.80;91.80;;;;;;5043760;28;20030;-86
2022/05/24 07:19:19;;;;;;;2.88;2.40;;;20.90;91.00;;;;;;5041947;28;20029;-87
2022/05/24 07:21:45;;;;;;;3.17;1.80;;;21.00;89.60;;;;;;5031309;28;20059;-84
2022/05/24 07:24:11;;;;;;;2.05;1.85;;;21.00;87.40;;;;;;5036418;28;20040;-86
2022/05/24 07:26:38;;;;;;;1.88;1.67;;;20.90;87.90;;;;;;5023662;28;20022;-84
2022/05/24 07:29:04;;;;;;;3.28;1.77;;;20.90;87.50;;;;;;5041393;28;20089;-84
2022/05/24 07:31:30;;;;;;;2.40;1.95;;;20.90;88.40;;;;;;5033935;28;20088;-86
2022/05/24 07:33:59;;;;;;;2.55;1.75;;;20.90;87.80;;;;;;5020353;28;20057;-85
2022/05/24 07:36:25;;;;;;;2.17;1.45;;;20.90;88.30;;;;;;5017366;28;20029;-86
2022/05/24 07:38:50;;;;;;;1.85;1.60;;;20.90;87.60;;;;;;5029142;28;20531;-86
2022/05/24 07:46:56;;;;;;;2.53;1.38;;;21.20;88.20;;;;;;5016343;28;20645;-87
2022/05/24 07:49:21;;;;;;;1.42;1.00;;;21.20;86.70;;;;;;5027092;28;20033;-83
2022/05/24 07:51:47;;;;;;;3.03;1.45;;;21.10;86.20;;;;;;5027742;28;20125;-87
2022/05/24 07:54:13;;;;;;;2.35;1.50;;;21.00;86.40;;;;;;5026750;28;20112;-85
2022/05/24 07:56:38;;;;;;;2.15;1.70;;;20.90;87.30;;;;;;5027992;28;20088;-84
2022/05/24 07:59:04;;;;;;;1.88;1.45;;;20.80;87.90;;;;;;5027591;28;20818;-86
2022/05/24 08:01:29;;;;;;;1.67;1.58;;;20.80;88.30;;;;;;5026764;28;20029;-85
2022/05/24 08:03:55;;;;;;;1.60;1.30;;;20.80;87.70;;;;;;5027105;28;20104;-83
2022/05/24 08:06:20;;;;;;;2.65;1.73;;;20.80;88.00;;;;;;5015359;28;20477;-86
2022/05/24 08:08:46;;;;;;;2.70;1.85;;;20.80;87.50;;;;;;5024279;28;20034;-84
2022/05/24 08:11:11;;;;;;;1.95;1.27;;;20.70;88.20;;;;;;5031497;28;20531;-84
2022/05/24 08:13:38;;;;;;;2.53;1.40;;;20.60;87.50;;;;;;5032573;28;20596;-87
2022/05/24 08:16:04;;;;;;;1.75;1.38;;;20.60;87.60;;;;;;5022545;28;20191;-87
2022/05/24 08:18:30;;;;;;;2.67;1.27;;;20.50;88.30;;;;;;5046293;28;20144;-85
2022/05/24 08:20:56;;;;;;;1.60;1.27;;;20.60;87.60;;;;;;5032365;28;20626;-86
2022/05/24 08:23:24;;;;;;;2.92;1.40;;;20.60;88.00;;;;;;5037873;28;20026;-86
2022/05/24 08:25:50;;;;;;;1.95;1.33;;;20.50;88.80;;;;;;5034979;28;20528;-86
2022/05/24 08:28:17;;;;;;;1.60;1.40;;;20.50;88.90;;;;;;5036001;28;20036;-86
2022/05/24 08:30:42;;;;;;;6.03;1.55;;;20.50;89.00;;;;;;5036673;28;20045;-87
2022/05/24 08:33:12;;;;;;;2.55;1.55;;;20.60;88.70;;;;;;5034146;28;20152;-86
2022/05/24 08:35:38;;;;;;;2.15;1.30;;;20.80;88.70;;;;;;5033841;28;20082;-86
2022/05/24 08:38:06;;;;;;;8.15;1.52;;;21.00;88.70;;;;;;5031155;28;20280;-87
2022/05/24 08:40:35;;;;;;;1.13;1.00;;;21.30;87.80;;;;;;5028748;28;20034;-87
2022/05/24 08:43:35;;;;;;;3.25;1.20;;;21.60;88.60;;;;;;5026041;28;20030;-86
2022/05/24 08:48:58;;;;;;;1.17;0.82;;;22.10;84.50;;;;;;5014166;28;20103;-87
2022/05/24 08:51:38;;;;;;;1.98;1.00;;;22.20;83.10;;;;;;5027770;28;20042;-85
2022/05/24 08:54:09;;;;;;;3.75;1.00;;;22.30;83.40;;;;;;5035911;28;20026;-86
2022/05/24 08:56:41;;;;;;;4.07;0.90;;;22.40;83.30;;;;;;5028494;28;20071;-87
2022/05/24 08:59:15;;;;;;;1.27;1.02;;;22.30;82.70;;;;;;5019433;28;20401;-85
2022/05/24 09:01:42;;;;;;;5.30;0.98;;;22.40;82.60;;;;;;5023183;28;20069;-84
2022/05/24 09:04:09;;;;;;;2.10;1.30;;;22.50;83.10;;;;;;5021628;28;20142;-86
2022/05/24 09:06:51;;;;;;;2.20;1.00;;;22.50;84.50;;;;;;5029707;28;20037;-87
2022/05/24 09:09:33;;;;;;;1.35;1.25;;;22.60;82.30;;;;;;5011227;28;20040;-84
2022/05/24 09:12:22;;;;;;;1.37;1.00;;;22.60;81.70;;;;;;5019188;28;20021;-84
2022/05/24 09:15:09;;;;;;;2.47;1.77;;;22.60;83.50;;;;;;5029485;28;20132;-85
2022/05/24 09:17:59;;;;;;;1.90;1.00;;;22.70;81.70;;;;;;5021385;28;20025;-87
2022/05/24 09:20:25;;;;;;;5.85;1.60;;;22.90;83.50;;;;;;5029457;28;20033;-86
2022/05/24 09:22:57;;;;;;;1.85;1.50;;;23.10;83.50;;;;;;5031084;28;20037;-85
2022/05/24 09:25:22;;;;;;;2.25;1.20;;;23.30;81.50;;;;;;5028968;28;20044;-84
2022/05/24 09:27:53;;;;;;;1.67;1.00;;;23.40;81.10;;;;;;5030967;28;20034;-85
2022/05/24 09:30:41;;;;;;;1.67;1.02;;;23.60;82.40;;;;;;5029526;28;20033;-85
2022/05/24 09:33:23;;;;;;;2.55;1.42;;;23.70;81.40;;;;;;5024813;28;20505;-85
2022/05/24 09:35:51;;;;;;;7.18;1.42;;;23.90;80.60;;;;;;5022572;28;20029;-84
2022/05/24 09:38:18;;;;;;;2.75;1.50;;;23.90;80.40;;;;;;5034502;28;20029;-84
2022/05/24 09:40:48;;;;;;;1.50;1.00;;;23.90;82.50;;;;;;5028670;28;20041;-85
2022/05/24 09:43:26;;;;;;;5.15;1.23;;;23.90;80.00;;;;;;5030965;28;20033;-84
2022/05/24 09:46:03;;;;;;;1.67;1.30;;;23.90;81.20;;;;;;5028354;28;20029;-86
2022/05/24 09:48:32;;;;;;;1.83;1.13;;;23.80;79.50;;;;;;5029578;28;20018;-84
2022/05/24 09:50:59;;;;;;;1.38;1.13;;;23.80;79.60;;;;;;5027910;28;20030;-85
2022/05/24 09:53:30;;;;;;;2.22;1.33;;;23.70;80.30;;;;;;5029919;28;20029;-83
2022/05/24 09:56:29;;;;;;;1.63;0.93;;;23.70;80.00;;;;;;5029329;28;20052;-85
2022/05/24 09:59:03;;;;;;;1.58;1.10;;;23.60;81.00;;;;;;5024003;28;20174;-85
2022/05/24 10:01:35;;;;;;;2.60;1.00;;;23.70;80.30;;;;;;5031011;28;20048;-85
2022/05/24 10:04:29;;;;;;;2.42;1.15;;;23.70;81.20;;;;;;5033085;28;20450;-85
2022/05/24 10:07:19;;;;;;;1.48;0.95;;;23.70;80.90;;;;;;5032243;28;20030;-86
2022/05/24 10:10:07;;;;;;;3.05;1.23;;;23.60;80.40;;;;;;5032075;28;20029;-86
2022/05/24 10:12:48;;;;;;;2.53;0.80;;;23.60;80.60;;;;;;5028675;28;20030;-86
2022/05/24 10:15:22;;;;;;;1.55;0.85;;;23.60;81.70;;;;;;5027810;28;20025;-86
2022/05/24 10:18:10;;;;;;;1.25;0.80;;;23.70;82.00;;;;;;5029623;28;20018;-87
2022/05/24 10:20:54;;;;;;;4.78;1.90;;;23.80;81.80;;;;;;5021660;28;20592;-87
2022/05/24 10:23:30;;;;;;;4.20;0.77;;;23.90;82.70;;;;;;5021426;28;20038;-86
2022/05/24 10:26:24;;;;;;;1.33;0.85;;;23.90;83.00;;;;;;5027750;28;20032;-84
2022/05/24 10:29:04;;;;;;;1.70;1.08;;;24.00;80.20;;;;;;5026331;28;20040;-86
2022/05/24 10:31:48;;;;;;;1.98;1.00;;;24.00;82.70;;;;;;5026695;28;20040;-86
2022/05/24 10:40:14;;;;;;;1.02;0.88;;;24.70;80.50;;;;;;5024319;28;20091;-86
2022/05/24 10:43:08;;;;;;;2.33;0.60;;;25.00;80.60;;;;;;5014883;28;20490;-86
2022/05/24 10:45:52;;;;;;;3.97;0.88;;;25.30;79.50;;;;;;5027814;28;20034;-86
2022/05/24 10:48:57;;;;;;;2.28;0.93;;;25.70;79.20;;;;;;5033519;28;20021;-87
2022/05/24 10:51:47;;;;;;;0.90;0.70;;;26.00;78.60;;;;;;5028362;28;20112;-85
2022/05/24 10:54:31;;;;;;;0.82;0.70;;;26.10;75.50;;;;;;5028520;28;20437;-86
2022/05/24 10:57:06;;;;;;;0.90;0.80;;;26.10;76.80;;;;;;5028120;28;20106;-85
2022/05/24 10:59:48;;;;;;;2.28;1.45;;;26.00;75.80;;;;;;5027927;28;20069;-85
2022/05/24 11:02:46;;;;;;;1.73;1.13;;;26.00;76.40;;;;;;5028991;28;20128;-85
2022/05/24 11:05:23;;;;;;;4.03;1.50;;;25.80;78.10;;;;;;5028218;28;20034;-86
2022/05/24 11:07:58;;;;;;;2.45;1.00;;;25.60;77.50;;;;;;5028755;28;20026;-86
2022/05/24 11:10:31;;;;;;;4.20;1.20;;;25.30;77.80;;;;;;5028627;28;20544;-86
2022/05/24 11:13:01;;;;;;;5.65;0.90;;;25.10;79.20;;;;;;5027900;28;20030;-86
2022/05/24 11:15:39;;;;;;;3.08;1.05;;;24.80;79.50;;;;;;5029015;28;20033;-86
2022/05/24 11:18:18;;;;;;;2.40;1.38;;;24.50;80.50;;;;;;5027711;28;20029;-86
2022/05/24 11:21:01;;;;;;;3.63;1.00;;;24.10;81.20;;;;;;5028021;28;20041;-85
2022/05/24 11:23:38;;;;;;;3.67;1.30;;;23.90;82.00;;;;;;5032698;28;20029;-86
2022/05/24 11:26:46;;;;;;;1.73;0.95;;;23.60;83.40;;;;;;5029547;28;20478;-85
2022/05/24 11:29:18;;;;;;;1.20;0.75;;;23.50;83.40;;;;;;5026082;28;20041;-86
2022/05/24 11:31:50;;;;;;;4.05;0.90;;;23.30;85.90;;;;;;5021949;28;20041;-85
2022/05/24 11:34:20;;;;;;;1.40;1.00;;;23.20;86.10;;;;;;5027462;28;20513;-85
2022/05/24 11:37:00;;;;;;;7.82;0.77;;;23.20;84.80;;;;;;5026344;28;20040;-85
2022/05/24 11:39:29;;;;;;;1.67;0.85;;;22.90;85.20;;;;;;5028668;28;20037;-88
2022/05/24 11:42:33;;;;;;;1.58;0.70;;;22.90;85.90;;;;;;5028309;28;20167;-85
2022/05/24 11:45:20;;;;;;;0.80;0.40;;;23.20;86.10;;;;;;5035823;28;20025;-85
2022/05/24 11:47:45;;;;;;;0.82;0.45;;;23.50;84.60;;;;;;5029688;28;20113;-87
2022/05/24 11:50:31;;;;;;;0.38;0.32;;;23.60;83.40;;;;;;5020351;28;20133;-85
2022/05/24 11:53:04;;;;;;;1.23;0.40;;;23.50;83.50;;;;;;5028470;28;20072;-85
2022/05/24 11:55:44;;;;;;;0.50;0.40;;;23.40;85.00;;;;;;5023538;28;20029;-86
2022/05/24 11:58:19;;;;;;;0.47;0.40;;;23.50;84.90;;;;;;5041241;28;20444;-84
2022/05/24 12:01:00;;;;;;;2.60;0.30;;;23.50;82.60;;;;;;5032418;28;20045;-85
2022/05/24 12:09:24;;;;;;;1.77;0.40;;;23.40;80.80;;;;;;5030011;28;20071;-86
2022/05/24 12:12:17;;;;;;;7.35;0.30;;;23.30;81.00;;;;;;5028589;28;20533;-85
2022/05/24 12:14:43;;;;;;;0.55;0.30;;;23.10;79.50;;;;;;5027459;28;20029;-86
2022/05/24 12:17:15;;;;;;;1.60;0.30;;;23.10;79.80;;;;;;5028428;28;20113;-84
2022/05/24 12:19:47;;;;;;;3.03;0.20;;;23.20;80.90;;;;;;5030265;28;20079;-84
2022/05/24 12:22:20;;;;;;;0.90;0.28;;;23.20;78.50;;;;;;5036157;28;20038;-85
2022/05/24 12:24:50;;;;;;;0.35;0.20;;;23.00;78.10;;;;;;5028802;28;20559;-84
2022/05/24 12:27:20;;;;;;;0.57;0.20;;;22.80;79.70;;;;;;5030002;28;20457;-84
2022/05/24 12:30:24;;;;;;;0.38;0.30;;;22.60;80.60;;;;;;5028694;28;21508;-83
2022/05/24 12:32:50;;;;;;;0.47;0.30;;;22.40;82.80;;;;;;5044403;28;20096;-83
2022/05/24 12:35:18;;;;;;;0.60;0.40;;;22.30;84.50;;;;;;5025659;28;20061;-83
2022/05/24 12:37:51;;;;;;;0.43;0.38;;;22.40;86.00;;;;;;5037333;28;20037;-85
2022/05/24 12:40:24;;;;;;;1.20;0.30;;;22.40;85.00;;;;;;5025868;28;20536;-84
2022/05/24 12:43:13;;;;;;;2.25;0.50;;;22.40;82.80;;;;;;5026892;28;20140;-83
2022/05/24 12:45:44;;;;;;;1.48;0.30;;;22.30;83.50;;;;;;5023148;28;20028;-85
2022/05/24 12:48:37;;;;;;;1.00;0.40;;;22.20;83.40;;;;;;5028314;28;20037;-85
2022/05/24 12:51:09;;;;;;;1.20;0.43;;;22.10;84.30;;;;;;5028482;28;20033;-85
2022/05/24 12:53:37;;;;;;;2.40;0.30;;;22.00;83.50;;;;;;5025476;28;20088;-85
2022/05/24 12:56:09;;;;;;;2.28;0.70;;;22.10;83.90;;;;;;5030849;28;20025;-83
2022/05/24 12:58:46;;;;;;;2.05;0.35;;;22.20;83.60;;;;;;5032096;28;20037;-85
2022/05/24 13:01:15;;;;;;;1.00;0.30;;;22.30;82.40;;;;;;5029414;28;20030;-85
2022/05/24 13:04:06;;;;;;;0.20;0.20;;;22.40;82.60;;;;;;5037275;28;20029;-84
2022/05/24 13:06:34;;;;;;;2.40;0.40;;;22.40;81.20;;;;;;5029529;28;20478;-85
2022/05/24 13:09:28;;;;;;;0.20;0.20;;;22.50;81.30;;;;;;5032805;28;20121;-84
2022/05/24 13:12:01;;;;;;;0.20;0.20;;;22.60;80.50;;;;;;5031066;28;20108;-86
2022/05/24 13:14:48;;;;;;;0.20;0.20;;;22.60;81.00;;;;;;5027035;28;20033;-85
2022/05/24 13:17:17;;;;;;;0.40;0.30;;;22.70;79.60;;;;;;5030539;28;20056;-87
2022/05/24 13:20:00;;;;;;;0.20;0.20;;;22.90;79.10;;;;;;5034238;28;20040;-85
2022/05/24 13:22:41;;;;;;;1.50;0.20;;;22.90;77.50;;;;;;5032624;28;20033;-85
2022/05/24 13:25:12;;;;;;;0.30;0.20;;;22.90;76.70;;;;;;5032045;28;20120;-87
2022/05/24 13:27:52;;;;;;;0.30;0.25;;;22.80;76.80;;;;;;5031671;28;20167;-85
2022/05/24 13:35:50;;;;;;;0.85;0.30;;;22.80;77.90;;;;;;5032826;28;20045;-85
2022/05/24 13:38:23;;;;;;;0.50;0.30;;;22.70;78.20;;;;;;5035466;28;20025;-85
2022/05/24 13:40:56;;;;;;;0.40;0.20;;;23.00;78.90;;;;;;5034058;28;20037;-88
2022/05/24 13:43:36;;;;;;;0.50;0.30;;;23.20;77.30;;;;;;5031967;28;20038;-85
2022/05/24 13:46:07;;;;;;;1.15;0.20;;;23.20;76.90;;;;;;5031702;28;20040;-84
2022/05/24 13:48:43;;;;;;;1.05;0.30;;;23.10;77.20;;;;;;5033375;28;20030;-89
2022/05/24 13:51:17;;;;;;;1.38;0.30;;;23.20;78.80;;;;;;5032804;28;20025;-88
2022/05/24 13:53:43;;;;;;;0.30;0.25;;;23.40;77.80;;;;;;5034834;28;20049;-89
2022/05/24 13:56:36;;;;;;;0.65;0.20;;;23.70;77.90;;;;;;5033479;28;20076;-86